Station Historical Data
Daily Summary for October 12, 2017 Units:  English    Metric   Both
« Previous Day
Next Day »
Daily Weekly Monthly Yearly Custom
  High: Low: Average:
Temperature: 80.7 °F 62.5 °F 71 °F
Dew Point: 69.1 °F 54.5 °F 63.6 °F
Humidity: 94% 41% 80%
Wind Speed: 8.0mph 1.0mph 4.5mph
Wind Gust: 8.0mph - -
Wind- - WNW
Pressure: 30.11 in 30.03 in -
Precipitation: 0.00 in    
Historical Graphs
 
 
Tabular Data for October 12, 2017
Time Temperature Dew Point Pressure Wind Wind Speed Wind Gust Humidity Rainfall Rate (Hourly) Conditions
00:05 71.0 °F 68.6 °F 30.06 in WSW 1.0 mph 1.0 mph 92% 0.00 in FEW
00:10 71.1 °F 68.7 °F 30.06 in WSW 1.0 mph 1.0 mph 92% 0.00 in FEW
00:15 71.0 °F 68.6 °F 30.06 in WSW 1.0 mph 1.0 mph 92% 0.00 in CLR
00:20 71.0 °F 68.6 °F 30.05 in WSW 1.0 mph 1.0 mph 92% 0.00 in CLR
00:25 71.1 °F 69.0 °F 30.05 in WSW 1.0 mph 1.0 mph 93% 0.00 in CLR
00:30 71.2 °F 69.1 °F 30.05 in WSW 1.0 mph 1.0 mph 93% 0.00 in CLR
00:40 71.1 °F 69.0 °F 30.05 in WSW 1.0 mph 1.0 mph 93% 0.00 in CLR
00:45 71.1 °F 69.0 °F 30.05 in WSW 1.0 mph 1.0 mph 93% 0.00 in CLR
00:50 71.2 °F 69.1 °F 30.05 in WSW 1.0 mph 1.0 mph 93% 0.00 in CLR
00:55 71.2 °F 69.1 °F 30.05 in WSW 1.0 mph 1.0 mph 93% 0.00 in CLR
01:00 71.2 °F 69.1 °F 30.05 in WSW 1.0 mph 1.0 mph 93% 0.00 in CLR
01:05 71.1 °F 69.0 °F 30.05 in WSW 1.0 mph 1.0 mph 93% 0.00 in CLR
01:10 71.0 °F 68.9 °F 30.05 in WSW 1.0 mph 1.0 mph 93% 0.00 in CLR
01:15 70.9 °F 68.8 °F 30.05 in WSW 1.0 mph 1.0 mph 93% 0.00 in CLR
01:20 70.9 °F 68.8 °F 30.05 in WSW 1.0 mph 1.0 mph 93% 0.00 in CLR
01:30 70.8 °F 68.7 °F 30.04 in WSW 1.0 mph 1.0 mph 93% 0.00 in CLR
01:35 70.7 °F 68.6 °F 30.04 in WSW 1.0 mph 1.0 mph 93% 0.00 in CLR
01:40 70.6 °F 68.5 °F 30.04 in WSW 1.0 mph 1.0 mph 93% 0.00 in CLR
01:45 70.5 °F 68.4 °F 30.04 in WSW 1.0 mph 1.0 mph 93% 0.00 in CLR
01:50 70.3 °F 68.2 °F 30.04 in WSW 1.0 mph 1.0 mph 93% 0.00 in CLR
01:55 70.2 °F 68.1 °F 30.04 in WSW 1.0 mph 1.0 mph 93% 0.00 in CLR
02:00 70.1 °F 67.9 °F 30.04 in WSW 1.0 mph 1.0 mph 93% 0.00 in CLR
02:05 69.9 °F 67.8 °F 30.04 in WSW 1.0 mph 1.0 mph 93% 0.00 in CLR
02:10 69.8 °F 67.7 °F 30.04 in WSW 1.0 mph 1.0 mph 93% 0.00 in CLR
02:15 69.7 °F 67.6 °F 30.04 in West 8.0 mph 8.0 mph 93% 0.00 in CLR
02:20 69.6 °F 67.5 °F 30.04 in West 8.0 mph 8.0 mph 93% 0.00 in CLR
02:25 69.5 °F 67.4 °F 30.04 in West 8.0 mph 8.0 mph 93% 0.00 in CLR
02:35 69.4 °F 67.3 °F 30.03 in West 8.0 mph 8.0 mph 93% 0.00 in CLR
02:40 69.3 °F 67.2 °F 30.03 in West 8.0 mph 8.0 mph 93% 0.00 in CLR
02:45 69.2 °F 67.1 °F 30.03 in West 8.0 mph 8.0 mph 93% 0.00 in CLR
02:50 69.1 °F 67.0 °F 30.04 in West 8.0 mph 8.0 mph 93% 0.00 in CLR
02:55 69.0 °F 66.9 °F 30.03 in West 8.0 mph 8.0 mph 93% 0.00 in CLR
03:00 69.0 °F 66.9 °F 30.03 in West 8.0 mph 8.0 mph 93% 0.00 in CLR
03:05 69.0 °F 66.9 °F 30.03 in West 8.0 mph 8.0 mph 93% 0.00 in CLR
03:15 68.9 °F 66.8 °F 30.03 in West 5.0 mph 8.0 mph 93% 0.00 in CLR
03:20 68.9 °F 66.8 °F 30.03 in West 5.0 mph 5.0 mph 93% 0.00 in CLR
03:25 68.8 °F 66.7 °F 30.03 in West 5.0 mph 5.0 mph 93% 0.00 in CLR
03:30 68.9 °F 66.8 °F 30.03 in West 5.0 mph 5.0 mph 93% 0.00 in CLR
03:35 68.8 °F 66.7 °F 30.03 in West 5.0 mph 5.0 mph 93% 0.00 in CLR
03:40 68.8 °F 66.7 °F 30.03 in West 5.0 mph 5.0 mph 93% 0.00 in CLR
03:45 68.9 °F 67.1 °F 30.03 in West 5.0 mph 5.0 mph 94% 0.00 in CLR
03:50 68.9 °F 67.1 °F 30.03 in West 5.0 mph 5.0 mph 94% 0.00 in CLR
03:55 68.8 °F 67.0 °F 30.03 in West 5.0 mph 5.0 mph 94% 0.00 in CLR
04:00 68.7 °F 66.6 °F 30.03 in West 5.0 mph 5.0 mph 93% 0.00 in CLR
04:05 68.6 °F 66.5 °F 30.03 in West 5.0 mph 5.0 mph 93% 0.00 in CLR
04:10 68.5 °F 66.4 °F 30.03 in West 5.0 mph 5.0 mph 93% 0.00 in CLR
04:15 68.4 °F 66.3 °F 30.03 in West 5.0 mph 5.0 mph 93% 0.00 in CLR
04:20 68.4 °F 66.6 °F 30.03 in West 5.0 mph 5.0 mph 94% 0.00 in CLR
04:25 68.5 °F 66.7 °F 30.03 in West 5.0 mph 5.0 mph 94% 0.00 in CLR
04:30 68.5 °F 66.7 °F 30.03 in West 5.0 mph 5.0 mph 94% 0.00 in CLR
04:35 68.5 °F 66.7 °F 30.03 in West 5.0 mph 5.0 mph 94% 0.00 in CLR
04:40 68.5 °F 66.7 °F 30.03 in West 5.0 mph 5.0 mph 94% 0.00 in CLR
04:45 68.4 °F 66.6 °F 30.03 in West 5.0 mph 5.0 mph 94% 0.00 in CLR
04:50 68.4 °F 66.6 °F 30.03 in West 5.0 mph 5.0 mph 94% 0.00 in CLR
04:55 68.5 °F 66.7 °F 30.03 in West 5.0 mph 5.0 mph 94% 0.00 in CLR
05:00 68.6 °F 66.8 °F 30.03 in West 5.0 mph 5.0 mph 94% 0.00 in CLR
05:05 68.6 °F 66.8 °F 30.03 in West 5.0 mph 5.0 mph 94% 0.00 in CLR
05:10 68.6 °F 66.8 °F 30.03 in West 5.0 mph 5.0 mph 94% 0.00 in CLR
05:15 68.6 °F 66.8 °F 30.03 in West 5.0 mph 5.0 mph 94% 0.00 in CLR
05:20 68.5 °F 66.7 °F 30.03 in West 5.0 mph 5.0 mph 94% 0.00 in CLR
05:25 68.5 °F 66.7 °F 30.04 in West 5.0 mph 5.0 mph 94% 0.00 in CLR
05:30 68.4 °F 66.6 °F 30.04 in West 5.0 mph 5.0 mph 94% 0.00 in CLR
05:35 68.4 °F 66.6 °F 30.04 in West 5.0 mph 5.0 mph 94% 0.00 in CLR
05:40 68.4 °F 66.6 °F 30.04 in West 5.0 mph 5.0 mph 94% 0.00 in CLR
05:45 68.3 °F 66.5 °F 30.04 in West 5.0 mph 5.0 mph 94% 0.00 in FEW
05:50 68.3 °F 66.5 °F 30.04 in West 5.0 mph 5.0 mph 94% 0.00 in FEW
05:55 68.3 °F 66.5 °F 30.04 in West 5.0 mph 5.0 mph 94% 0.00 in FEW
06:00 68.3 °F 66.5 °F 30.04 in West 5.0 mph 5.0 mph 94% 0.00 in FEW
06:05 68.2 °F 66.4 °F 30.05 in West 5.0 mph 5.0 mph 94% 0.00 in FEW
06:10 68.1 °F 66.3 °F 30.05 in West 5.0 mph 5.0 mph 94% 0.00 in FEW
06:15 68.0 °F 66.2 °F 30.05 in West 5.0 mph 5.0 mph 94% 0.00 in FEW
06:20 68.0 °F 66.2 °F 30.05 in West 5.0 mph 5.0 mph 94% 0.00 in FEW
06:25 67.9 °F 66.1 °F 30.05 in West 5.0 mph 5.0 mph 94% 0.00 in FEW
06:30 67.9 °F 66.1 °F 30.05 in West 5.0 mph 5.0 mph 94% 0.00 in FEW
06:35 67.9 °F 66.1 °F 30.05 in West 5.0 mph 5.0 mph 94% 0.00 in FEW
06:40 67.8 °F 66.0 °F 30.05 in West 5.0 mph 5.0 mph 94% 0.00 in FEW
06:45 67.9 °F 66.1 °F 30.05 in West 5.0 mph 5.0 mph 94% 0.00 in FEW
06:50 67.8 °F 66.0 °F 30.05 in West 5.0 mph 5.0 mph 94% 0.00 in FEW
06:55 67.8 °F 66.0 °F 30.05 in West 5.0 mph 5.0 mph 94% 0.00 in FEW
07:00 67.7 °F 65.9 °F 30.05 in West 5.0 mph 5.0 mph 94% 0.00 in FEW
07:05 67.7 °F 65.9 °F 30.05 in West 5.0 mph 5.0 mph 94% 0.00 in FEW
07:10 67.7 °F 65.9 °F 30.05 in West 5.0 mph 5.0 mph 94% 0.00 in FEW
07:15 67.7 °F 65.9 °F 30.06 in WNW 3.0 mph 5.0 mph 94% 0.00 in FEW
07:20 67.6 °F 65.8 °F 30.06 in WNW 3.0 mph 3.0 mph 94% 0.00 in FEW
07:25 67.5 °F 65.7 °F 30.06 in WNW 3.0 mph 3.0 mph 94% 0.00 in FEW
07:30 67.5 °F 65.7 °F 30.06 in WNW 3.0 mph 3.0 mph 94% 0.00 in FEW
07:35 67.4 °F 65.6 °F 30.06 in WNW 3.0 mph 3.0 mph 94% 0.00 in FEW
07:40 67.3 °F 65.5 °F 30.06 in WNW 3.0 mph 3.0 mph 94% 0.00 in FEW
07:45 67.3 °F 65.5 °F 30.06 in WNW 3.0 mph 3.0 mph 94% 0.00 in FEW
07:50 67.3 °F 65.5 °F 30.06 in WNW 3.0 mph 3.0 mph 94% 0.00 in FEW
07:55 67.3 °F 65.5 °F 30.06 in WNW 2.0 mph 3.0 mph 94% 0.00 in BKN
08:00 67.4 °F 65.6 °F 30.06 in WNW 2.0 mph 2.0 mph 94% 0.00 in BKN
08:05 67.3 °F 65.5 °F 30.06 in WNW 2.0 mph 2.0 mph 94% 0.00 in BKN
08:10 67.2 °F 65.4 °F 30.06 in WNW 2.0 mph 2.0 mph 94% 0.00 in BKN
08:15 67.1 °F 65.3 °F 30.07 in West 3.0 mph 3.0 mph 94% 0.00 in BKN
08:20 67.0 °F 65.2 °F 30.07 in West 3.0 mph 3.0 mph 94% 0.00 in BKN
08:25 66.9 °F 65.1 °F 30.07 in West 3.0 mph 3.0 mph 94% 0.00 in BKN
08:30 66.9 °F 65.1 °F 30.07 in West 3.0 mph 3.0 mph 94% 0.00 in BKN
08:35 66.9 °F 65.1 °F 30.07 in West 3.0 mph 3.0 mph 94% 0.00 in BKN
08:40 67.1 °F 65.3 °F 30.08 in West 3.0 mph 3.0 mph 94% 0.00 in BKN
08:45 67.1 °F 65.3 °F 30.08 in West 5.0 mph 5.0 mph 94% 0.00 in OVC
08:50 67.1 °F 65.3 °F 30.08 in West 5.0 mph 5.0 mph 94% 0.00 in OVC
08:55 67.1 °F 65.4 °F 30.08 in West 5.0 mph 5.0 mph 94% 0.00 in OVC
09:05 67.1 °F 65.3 °F 30.08 in West 5.0 mph 5.0 mph 94% 0.00 in OVC
09:10 67.2 °F 65.4 °F 30.08 in West 5.0 mph 5.0 mph 94% 0.00 in OVC
09:15 67.3 °F 65.5 °F 30.08 in WNW 3.0 mph 5.0 mph 94% 0.00 in BKN
09:20 67.4 °F 65.6 °F 30.08 in NW 3.0 mph 3.0 mph 94% 0.00 in BKN
09:25 67.4 °F 65.6 °F 30.08 in NW 3.0 mph 3.0 mph 94% 0.00 in BKN
09:30 67.4 °F 65.6 °F 30.08 in NW 3.0 mph 3.0 mph 94% 0.00 in BKN
09:35 67.3 °F 65.5 °F 30.08 in NW 3.0 mph 3.0 mph 94% 0.00 in BKN
09:40 67.5 °F 65.7 °F 30.08 in NW 3.0 mph 3.0 mph 94% 0.00 in BKN
09:45 67.6 °F 65.8 °F 30.08 in WNW 5.0 mph 5.0 mph 94% 0.00 in BKN
09:50 67.9 °F 66.1 °F 30.08 in WNW 5.0 mph 5.0 mph 94% 0.00 in BKN
09:55 68.3 °F 66.5 °F 30.09 in WNW 5.0 mph 5.0 mph 94% 0.00 in BKN
10:05 68.6 °F 66.8 °F 30.09 in WNW 5.0 mph 5.0 mph 94% 0.00 in BKN
10:10 68.8 °F 67.0 °F 30.09 in WNW 5.0 mph 5.0 mph 94% 0.00 in BKN
10:15 68.9 °F 66.8 °F 30.09 in West 6.0 mph 6.0 mph 93% 0.00 in SCT
10:20 68.9 °F 66.8 °F 30.09 in West 6.0 mph 6.0 mph 93% 0.00 in SCT
10:30 68.9 °F 66.5 °F 30.09 in West 6.0 mph 6.0 mph 92% 0.00 in SCT
10:40 69.3 °F 66.6 °F 30.09 in West 6.0 mph 6.0 mph 91% 0.00 in SCT
10:50 69.8 °F 66.8 °F 30.09 in West 6.0 mph 6.0 mph 90% 0.00 in SCT
10:55 70.3 °F 67.2 °F 30.09 in West 6.0 mph 6.0 mph 90% 0.00 in SCT
11:00 70.9 °F 67.2 °F 30.09 in West 6.0 mph 6.0 mph 88% 0.00 in SCT
11:05 71.6 °F 66.9 °F 30.09 in West 6.0 mph 6.0 mph 85% 0.00 in SCT
11:10 72.4 °F 67.3 °F 30.09 in West 6.0 mph 6.0 mph 84% 0.00 in SCT
11:15 72.9 °F 68.1 °F 30.09 in West 6.0 mph 6.0 mph 85% 0.00 in FEW
11:20 73.5 °F 67.3 °F 30.09 in West 6.0 mph 6.0 mph 81% 0.00 in FEW
11:25 74.0 °F 68.1 °F 30.09 in West 6.0 mph 6.0 mph 82% 0.00 in FEW
11:30 74.9 °F 67.9 °F 30.09 in West 6.0 mph 6.0 mph 79% 0.00 in FEW
11:35 75.5 °F 68.2 °F 30.09 in West 6.0 mph 6.0 mph 78% 0.00 in FEW
11:40 76.2 °F 68.4 °F 30.09 in West 6.0 mph 6.0 mph 77% 0.00 in FEW
11:45 76.6 °F 68.1 °F 30.09 in West 6.0 mph 6.0 mph 75% 0.00 in FEW
11:50 76.7 °F 67.8 °F 30.09 in West 6.0 mph 6.0 mph 74% 0.00 in FEW
11:55 77.0 °F 67.7 °F 30.09 in West 6.0 mph 6.0 mph 73% 0.00 in FEW
12:00 76.8 °F 68.3 °F 30.09 in West 6.0 mph 6.0 mph 75% 0.00 in FEW
12:05 76.9 °F 68.4 °F 30.09 in West 6.0 mph 6.0 mph 75% 0.00 in FEW
12:10 76.5 °F 67.2 °F 30.09 in West 6.0 mph 6.0 mph 73% 0.00 in FEW
12:15 76.2 °F 67.7 °F 30.09 in West 7.0 mph 7.0 mph 75% 0.00 in FEW
12:20 75.9 °F 67.8 °F 30.09 in WNW 7.0 mph 7.0 mph 76% 0.00 in FEW
12:25 75.8 °F 67.3 °F 30.09 in WNW 7.0 mph 7.0 mph 75% 0.00 in FEW
12:30 75.9 °F 67.4 °F 30.09 in WNW 7.0 mph 7.0 mph 75% 0.00 in FEW
12:35 75.7 °F 66.9 °F 30.09 in WNW 7.0 mph 7.0 mph 74% 0.00 in FEW
12:40 75.6 °F 67.5 °F 30.09 in WNW 7.0 mph 7.0 mph 76% 0.00 in FEW
12:45 75.9 °F 66.2 °F 30.09 in WNW 7.0 mph 7.0 mph 72% 0.00 in FEW
12:50 76.2 °F 66.5 °F 30.09 in WNW 7.0 mph 7.0 mph 72% 0.00 in FEW
12:55 76.3 °F 66.6 °F 30.08 in WNW 7.0 mph 7.0 mph 72% 0.00 in FEW
13:00 76.5 °F 67.2 °F 30.08 in WNW 7.0 mph 7.0 mph 73% 0.00 in FEW
13:05 76.4 °F 65.9 °F 30.08 in WNW 7.0 mph 7.0 mph 70% 0.00 in FEW
13:10 76.3 °F 65.0 °F 30.08 in WNW 7.0 mph 7.0 mph 68% 0.00 in FEW
13:15 76.4 °F 64.2 °F 30.08 in NW 8.0 mph 8.0 mph 66% 0.00 in CLR
13:20 76.7 °F 64.5 °F 30.08 in NW 8.0 mph 8.0 mph 66% 0.00 in CLR
13:25 76.8 °F 64.6 °F 30.08 in NW 8.0 mph 8.0 mph 66% 0.00 in CLR
13:30 76.8 °F 62.8 °F 30.08 in NW 8.0 mph 8.0 mph 62% 0.00 in CLR
13:35 76.9 °F 63.3 °F 30.07 in NW 8.0 mph 8.0 mph 63% 0.00 in CLR
13:40 77.2 °F 64.1 °F 30.07 in NW 8.0 mph 8.0 mph 64% 0.00 in CLR
13:45 77.6 °F 63.5 °F 30.07 in NW 8.0 mph 8.0 mph 62% 0.00 in CLR
13:50 78.0 °F 62.5 °F 30.07 in NW 8.0 mph 8.0 mph 59% 0.00 in CLR
13:55 78.6 °F 63.1 °F 30.07 in NW 8.0 mph 8.0 mph 59% 0.00 in CLR
14:00 79.3 °F 63.8 °F 30.06 in NW 8.0 mph 8.0 mph 59% 0.00 in CLR
14:05 80.0 °F 63.9 °F 30.06 in NW 8.0 mph 8.0 mph 58% 0.00 in CLR
14:10 80.0 °F 62.4 °F 30.06 in NW 8.0 mph 8.0 mph 55% 0.00 in CLR
14:15 80.2 °F 62.6 °F 30.06 in NW 8.0 mph 8.0 mph 55% 0.00 in CLR
14:20 80.6 °F 62.4 °F 30.06 in WNW 8.0 mph 8.0 mph 54% 0.00 in CLR
14:25 80.4 °F 63.3 °F 30.06 in WNW 8.0 mph 8.0 mph 56% 0.00 in CLR
14:30 80.5 °F 63.4 °F 30.05 in WNW 8.0 mph 8.0 mph 56% 0.00 in CLR
14:35 80.3 °F 59.9 °F 30.05 in WNW 8.0 mph 8.0 mph 50% 0.00 in CLR
14:40 80.1 °F 63.0 °F 30.05 in WNW 8.0 mph 8.0 mph 56% 0.00 in CLR
14:45 80.1 °F 62.0 °F 30.05 in WNW 8.0 mph 8.0 mph 54% 0.00 in CLR
14:50 80.2 °F 61.5 °F 30.05 in WNW 8.0 mph 8.0 mph 53% 0.00 in CLR
14:55 80.4 °F 62.2 °F 30.05 in WNW 8.0 mph 8.0 mph 54% 0.00 in CLR
15:00 80.6 °F 59.7 °F 30.05 in WNW 8.0 mph 8.0 mph 49% 0.00 in CLR
15:05 80.7 °F 57.4 °F 30.05 in WNW 8.0 mph 8.0 mph 45% 0.00 in CLR
15:10 80.6 °F 54.7 °F 30.05 in WNW 8.0 mph 8.0 mph 41% 0.00 in CLR
15:15 80.4 °F 55.9 °F 30.05 in NNW 7.0 mph 8.0 mph 43% 0.00 in CLR
15:20 80.3 °F 57.0 °F 30.05 in North 7.0 mph 7.0 mph 45% 0.00 in CLR
15:25 80.1 °F 55.6 °F 30.05 in North 7.0 mph 7.0 mph 43% 0.00 in CLR
15:30 79.9 °F 56.1 °F 30.05 in North 7.0 mph 7.0 mph 44% 0.00 in CLR
15:35 79.8 °F 57.2 °F 30.05 in North 7.0 mph 7.0 mph 46% 0.00 in CLR
15:40 79.7 °F 55.9 °F 30.05 in North 7.0 mph 7.0 mph 44% 0.00 in CLR
15:45 79.6 °F 55.8 °F 30.05 in North 7.0 mph 7.0 mph 44% 0.00 in CLR
15:50 79.7 °F 54.5 °F 30.05 in North 7.0 mph 7.0 mph 42% 0.00 in CLR
15:55 79.7 °F 55.2 °F 30.05 in North 7.0 mph 7.0 mph 43% 0.00 in CLR
16:00 79.6 °F 55.8 °F 30.05 in North 7.0 mph 7.0 mph 44% 0.00 in CLR
16:05 79.6 °F 55.8 °F 30.04 in North 7.0 mph 7.0 mph 44% 0.00 in CLR
16:10 79.8 °F 54.7 °F 30.04 in North 7.0 mph 7.0 mph 42% 0.00 in CLR
16:15 80.0 °F 58.5 °F 30.04 in NNW 7.0 mph 7.0 mph 48% 0.00 in FEW
16:20 79.7 °F 57.7 °F 30.04 in NW 7.0 mph 7.0 mph 47% 0.00 in FEW
16:30 79.2 °F 55.4 °F 30.04 in NW 7.0 mph 7.0 mph 44% 0.00 in FEW
16:35 78.8 °F 56.9 °F 30.04 in NW 7.0 mph 7.0 mph 47% 0.00 in FEW
16:40 78.8 °F 55.0 °F 30.04 in NW 7.0 mph 7.0 mph 44% 0.00 in FEW
16:45 78.5 °F 58.3 °F 30.04 in NW 7.0 mph 7.0 mph 50% 0.00 in FEW
16:50 78.1 °F 57.4 °F 30.04 in NW 7.0 mph 7.0 mph 49% 0.00 in FEW
16:55 77.9 °F 55.5 °F 30.04 in NW 7.0 mph 7.0 mph 46% 0.00 in FEW
17:00 78.1 °F 55.6 °F 30.04 in NW 7.0 mph 7.0 mph 46% 0.00 in FEW
17:05 77.9 °F 56.7 °F 30.04 in NW 7.0 mph 7.0 mph 48% 0.00 in FEW
17:10 77.3 °F 56.1 °F 30.04 in NW 7.0 mph 7.0 mph 48% 0.00 in FEW
17:15 76.7 °F 58.3 °F 30.04 in NW 3.0 mph 7.0 mph 53% 0.00 in FEW
17:20 76.4 °F 57.5 °F 30.04 in NW 3.0 mph 3.0 mph 52% 0.00 in FEW
17:25 76.2 °F 56.2 °F 30.04 in NW 3.0 mph 3.0 mph 50% 0.00 in FEW
17:30 76.1 °F 56.7 °F 30.04 in NW 3.0 mph 3.0 mph 51% 0.00 in FEW
17:35 75.9 °F 57.0 °F 30.04 in NW 3.0 mph 3.0 mph 52% 0.00 in FEW
17:40 75.7 °F 57.9 °F 30.04 in NW 3.0 mph 3.0 mph 54% 0.00 in FEW
17:45 75.3 °F 57.5 °F 30.04 in NW 3.0 mph 3.0 mph 54% 0.00 in FEW
17:50 75.2 °F 58.4 °F 30.04 in NW 3.0 mph 3.0 mph 56% 0.00 in FEW
17:55 74.9 °F 59.2 °F 30.04 in NW 3.0 mph 3.0 mph 58% 0.00 in FEW
18:00 74.6 °F 58.4 °F 30.04 in NW 3.0 mph 3.0 mph 57% 0.00 in FEW
18:05 74.3 °F 59.0 °F 30.04 in NW 3.0 mph 3.0 mph 59% 0.00 in FEW
18:15 73.8 °F 59.0 °F 30.04 in WNW 5.0 mph 5.0 mph 60% 0.00 in FEW
18:20 73.6 °F 58.4 °F 30.04 in West 5.0 mph 5.0 mph 59% 0.00 in FEW
18:25 73.5 °F 58.7 °F 30.05 in West 5.0 mph 5.0 mph 60% 0.00 in FEW
18:30 73.2 °F 58.5 °F 30.05 in West 5.0 mph 5.0 mph 60% 0.00 in FEW
18:35 72.9 °F 58.2 °F 30.05 in West 5.0 mph 5.0 mph 60% 0.00 in FEW
18:40 72.6 °F 57.9 °F 30.05 in West 5.0 mph 5.0 mph 60% 0.00 in FEW
18:45 72.4 °F 58.2 °F 30.05 in West 5.0 mph 5.0 mph 61% 0.00 in FEW
18:50 72.2 °F 58.0 °F 30.05 in West 5.0 mph 5.0 mph 61% 0.00 in FEW
18:55 72.0 °F 58.7 °F 30.05 in West 5.0 mph 5.0 mph 63% 0.00 in FEW
19:00 71.8 °F 59.0 °F 30.05 in West 5.0 mph 5.0 mph 64% 0.00 in FEW
19:05 71.4 °F 59.1 °F 30.05 in West 5.0 mph 5.0 mph 65% 0.00 in FEW
19:10 71.1 °F 59.6 °F 30.05 in West 5.0 mph 5.0 mph 67% 0.00 in FEW
19:15 70.7 °F 59.2 °F 30.05 in WNW 2.0 mph 5.0 mph 67% 0.00 in FEW
19:20 70.4 °F 58.9 °F 30.05 in NW 2.0 mph 2.0 mph 67% 0.00 in FEW
19:25 70.1 °F 59.9 °F 30.05 in NW 2.0 mph 2.0 mph 70% 0.00 in FEW
19:30 69.7 °F 60.6 °F 30.06 in NW 2.0 mph 2.0 mph 73% 0.00 in FEW
19:40 68.9 °F 60.7 °F 30.06 in NW 2.0 mph 2.0 mph 75% 0.00 in FEW
19:45 68.7 °F 60.4 °F 30.06 in NW 2.0 mph 2.0 mph 75% 0.00 in FEW
19:50 68.4 °F 60.9 °F 30.06 in NW 2.0 mph 2.0 mph 77% 0.00 in FEW
19:55 68.1 °F 61.0 °F 30.07 in NW 2.0 mph 2.0 mph 78% 0.00 in FEW
20:00 67.9 °F 61.1 °F 30.07 in NW 2.0 mph 2.0 mph 79% 0.00 in FEW
20:05 67.6 °F 60.9 °F 30.07 in NW 2.0 mph 2.0 mph 79% 0.00 in FEW
20:10 67.4 °F 61.0 °F 30.07 in NW 2.0 mph 2.0 mph 80% 0.00 in FEW
20:15 67.2 °F 61.2 °F 30.07 in NW 2.0 mph 2.0 mph 81% 0.00 in CLR
20:20 67.1 °F 61.4 °F 30.07 in NNW 2.0 mph 2.0 mph 82% 0.00 in CLR
20:25 66.9 °F 61.2 °F 30.07 in NNW 2.0 mph 2.0 mph 82% 0.00 in CLR
20:30 66.6 °F 60.9 °F 30.07 in NNW 2.0 mph 2.0 mph 82% 0.00 in CLR
20:40 66.3 °F 61.0 °F 30.08 in NNW 2.0 mph 2.0 mph 83% 0.00 in CLR
20:45 66.2 °F 61.2 °F 30.08 in NNW 2.0 mph 2.0 mph 84% 0.00 in CLR
20:50 66.0 °F 61.0 °F 30.08 in NNW 2.0 mph 2.0 mph 84% 0.00 in CLR
20:55 65.9 °F 60.9 °F 30.08 in NNW 2.0 mph 2.0 mph 84% 0.00 in CLR
21:00 65.8 °F 61.2 °F 30.08 in NNW 2.0 mph 2.0 mph 85% 0.00 in CLR
21:05 65.6 °F 61.0 °F 30.08 in NNW 2.0 mph 2.0 mph 85% 0.00 in CLR
21:10 65.5 °F 60.9 °F 30.08 in NNW 2.0 mph 2.0 mph 85% 0.00 in CLR
21:15 65.3 °F 61.0 °F 30.08 in NNW 2.0 mph 2.0 mph 86% 0.00 in CLR
21:20 65.1 °F 60.8 °F 30.08 in NNW 2.0 mph 2.0 mph 86% 0.00 in CLR
21:25 64.9 °F 60.6 °F 30.09 in NNW 2.0 mph 2.0 mph 86% 0.00 in CLR
21:30 64.8 °F 60.5 °F 30.09 in NNW 2.0 mph 2.0 mph 86% 0.00 in CLR
21:40 64.7 °F 60.7 °F 30.09 in NNW 2.0 mph 2.0 mph 87% 0.00 in CLR
21:45 64.5 °F 60.5 °F 30.09 in NNW 2.0 mph 2.0 mph 87% 0.00 in CLR
21:50 64.3 °F 60.3 °F 30.09 in NNW 2.0 mph 2.0 mph 87% 0.00 in CLR
21:55 64.2 °F 60.6 °F 30.09 in NNW 2.0 mph 2.0 mph 88% 0.00 in CLR
22:00 64.1 °F 60.5 °F 30.09 in NNW 2.0 mph 2.0 mph 88% 0.00 in CLR
22:05 63.9 °F 60.3 °F 30.09 in NNW 2.0 mph 2.0 mph 88% 0.00 in CLR
22:10 63.8 °F 60.2 °F 30.10 in NNW 2.0 mph 2.0 mph 88% 0.00 in CLR
22:15 63.7 °F 60.1 °F 30.10 in NNW 2.0 mph 2.0 mph 88% 0.00 in CLR
22:20 63.7 °F 60.1 °F 30.10 in North 2.0 mph 2.0 mph 88% 0.00 in CLR
22:25 63.7 °F 60.4 °F 30.10 in North 2.0 mph 2.0 mph 89% 0.00 in CLR
22:30 63.6 °F 60.3 °F 30.10 in North 2.0 mph 2.0 mph 89% 0.00 in CLR
22:35 63.6 °F 60.3 °F 30.10 in North 2.0 mph 2.0 mph 89% 0.00 in CLR
22:40 63.6 °F 60.3 °F 30.10 in North 2.0 mph 2.0 mph 89% 0.00 in CLR
22:45 63.6 °F 60.3 °F 30.10 in North 2.0 mph 2.0 mph 89% 0.00 in CLR
22:50 63.5 °F 60.2 °F 30.10 in North 2.0 mph 2.0 mph 89% 0.00 in CLR
22:55 63.4 °F 60.1 °F 30.10 in North 2.0 mph 2.0 mph 89% 0.00 in CLR
23:00 63.3 °F 60.0 °F 30.10 in North 2.0 mph 2.0 mph 89% 0.00 in CLR
23:05 63.1 °F 59.8 °F 30.10 in North 2.0 mph 2.0 mph 89% 0.00 in CLR
23:10 63.1 °F 59.8 °F 30.10 in North 2.0 mph 2.0 mph 89% 0.00 in CLR
23:20 63.0 °F 59.7 °F 30.10 in North 2.0 mph 2.0 mph 89% 0.00 in CLR
23:25 62.9 °F 59.6 °F 30.11 in North 2.0 mph 2.0 mph 89% 0.00 in CLR
23:35 62.8 °F 59.8 °F 30.11 in North 2.0 mph 2.0 mph 90% 0.00 in CLR
23:40 62.7 °F 59.7 °F 30.11 in North 2.0 mph 2.0 mph 90% 0.00 in CLR
23:45 62.6 °F 59.6 °F 30.11 in North 2.0 mph 2.0 mph 90% 0.00 in CLR
23:50 62.6 °F 59.6 °F 30.11 in North 2.0 mph 2.0 mph 90% 0.00 in CLR
23:55 62.5 °F 59.6 °F 30.11 in North 2.0 mph 2.0 mph 90% 0.00 in CLR
Piedmont Bend
Compliments of Weather Underground - 4 mb